Time;durP1;ratioP1;P1;durP2;ratioP2;P2;SDS_P1;SDS_P2;PMS_P1;PMS_P2;Temp;Humidity;BMP_temperature;BMP_pressure;BME280_temperature;BME280_humidity;BME280_pressure;Samples;Min_cycle;Max_cycle;Signal;HPM_P1;HPM_P2
2022/07/13 00:02:18;;;;;;;0.70;0.60;;;19.10;99.90;;;;;;6215379;23;20131;-86
2022/07/13 00:04:44;;;;;;;1.45;0.70;;;19.20;99.90;;;;;;6214166;23;20017;-86
2022/07/13 00:07:09;;;;;;;1.08;0.60;;;19.10;99.90;;;;;;6189133;23;20060;-87
2022/07/13 00:09:35;;;;;;;1.02;0.73;;;19.10;99.90;;;;;;6189152;23;20090;-86
2022/07/13 00:12:01;;;;;;;1.27;0.63;;;19.10;99.90;;;;;;6214312;23;20102;-87
2022/07/13 00:14:29;;;;;;;1.02;0.63;;;19.10;99.90;;;;;;6214414;23;20111;-87
2022/07/13 00:16:54;;;;;;;0.80;0.50;;;19.10;99.90;;;;;;6214522;23;20316;-87
2022/07/13 00:19:20;;;;;;;0.80;0.70;;;19.10;99.90;;;;;;6189242;23;20074;-85
2022/07/13 00:21:46;;;;;;;0.93;0.60;;;19.00;99.90;;;;;;6216060;23;20024;-87
2022/07/13 00:24:14;;;;;;;1.35;0.55;;;19.00;99.90;;;;;;6215834;23;20316;-86
2022/07/13 00:26:40;;;;;;;0.95;0.60;;;19.00;99.90;;;;;;6214305;23;20070;-86
2022/07/13 00:29:06;;;;;;;1.20;0.77;;;19.00;99.90;;;;;;6215485;23;20515;-86
2022/07/13 00:31:34;;;;;;;1.80;0.52;;;19.00;99.90;;;;;;6213866;23;20111;-87
2022/07/13 00:33:59;;;;;;;0.95;0.60;;;19.00;99.90;;;;;;6214073;23;20091;-85
2022/07/13 00:36:25;;;;;;;0.63;0.60;;;19.00;99.90;;;;;;6214627;23;20059;-87
2022/07/13 00:38:51;;;;;;;0.50;0.50;;;18.80;99.90;;;;;;6188952;23;20012;-86
2022/07/13 00:41:17;;;;;;;1.05;0.65;;;19.00;99.90;;;;;;6215890;23;20905;-86
2022/07/13 00:43:42;;;;;;;0.90;0.68;;;18.90;99.90;;;;;;6215216;23;20046;-86
2022/07/13 00:46:09;;;;;;;0.70;0.65;;;19.00;99.90;;;;;;6215032;23;20023;-86
2022/07/13 00:48:36;;;;;;;0.98;0.50;;;19.00;99.90;;;;;;6215720;23;20012;-86
2022/07/13 00:51:04;;;;;;;0.65;0.50;;;19.00;99.90;;;;;;6213924;23;20052;-87
2022/07/13 00:53:32;;;;;;;0.93;0.52;;;19.00;99.90;;;;;;6213587;23;20048;-85
2022/07/13 00:55:58;;;;;;;0.90;0.60;;;19.00;99.90;;;;;;6213338;23;20021;-83
2022/07/13 00:58:24;;;;;;;0.82;0.50;;;19.00;99.90;;;;;;6214434;23;20104;-87
2022/07/13 01:00:50;;;;;;;0.43;0.40;;;19.00;99.90;;;;;;6215362;23;20047;-86
2022/07/13 01:03:16;;;;;;;0.50;0.40;;;19.00;99.90;;;;;;6213620;23;20406;-86
2022/07/13 01:05:43;;;;;;;0.70;0.40;;;19.00;99.90;;;;;;6213952;23;20059;-87
2022/07/13 01:08:10;;;;;;;0.70;0.60;;;19.00;99.90;;;;;;6214177;23;20016;-86
2022/07/13 01:10:36;;;;;;;1.23;0.63;;;19.10;99.90;;;;;;6214237;23;20019;-87
2022/07/13 01:13:02;;;;;;;1.02;0.60;;;19.00;99.90;;;;;;6215115;23;20456;-87
2022/07/13 01:15:28;;;;;;;1.30;0.60;;;19.00;99.90;;;;;;6215344;23;20091;-86
2022/07/13 01:17:54;;;;;;;0.50;0.50;;;19.00;99.90;;;;;;6215049;23;20017;-86
2022/07/13 01:20:21;;;;;;;0.77;0.50;;;19.00;99.90;;;;;;6213394;23;20012;-87
2022/07/13 01:22:51;;;;;;;1.67;0.70;;;19.00;99.90;;;;;;6215363;23;20024;-87
2022/07/13 01:25:18;;;;;;;0.80;0.70;;;18.80;99.90;;;;;;6214911;23;20312;-87
2022/07/13 01:27:46;;;;;;;0.75;0.50;;;19.10;99.90;;;;;;6213390;23;20016;-86
2022/07/13 01:30:12;;;;;;;0.98;0.77;;;19.00;99.90;;;;;;6188488;23;20017;-86
2022/07/13 01:32:47;;;;;;;0.98;0.55;;;19.00;99.90;;;;;;6213193;23;20035;-86
2022/07/13 01:35:14;;;;;;;0.60;0.60;;;19.00;99.90;;;;;;6213479;23;20020;-86
2022/07/13 01:37:40;;;;;;;1.13;0.70;;;19.00;99.90;;;;;;6213348;23;20028;-86
2022/07/13 01:40:06;;;;;;;1.42;0.70;;;19.00;99.90;;;;;;6213847;23;20012;-87
2022/07/13 01:42:38;;;;;;;0.82;0.60;;;19.00;99.90;;;;;;6213409;23;20406;-87
2022/07/13 01:45:07;;;;;;;0.80;0.60;;;19.00;99.90;;;;;;6215416;23;20051;-86
2022/07/13 01:47:40;;;;;;;0.70;0.60;;;19.00;99.90;;;;;;6215023;23;20021;-86
2022/07/13 01:50:08;;;;;;;0.80;0.60;;;19.00;99.90;;;;;;6215364;23;20024;-87
2022/07/13 01:52:35;;;;;;;1.45;0.68;;;19.00;99.90;;;;;;6215198;23;20016;-85
2022/07/13 01:55:02;;;;;;;1.75;1.05;;;19.00;99.90;;;;;;6215107;23;20015;-87
2022/07/13 01:57:28;;;;;;;1.17;0.80;;;19.00;99.90;;;;;;6214604;23;20028;-86
2022/07/13 02:00:02;;;;;;;0.68;0.60;;;19.00;99.90;;;;;;6215447;23;20013;-87
2022/07/13 02:02:28;;;;;;;0.75;0.70;;;19.00;99.90;;;;;;6213037;23;20438;-86
2022/07/13 02:04:54;;;;;;;0.95;0.60;;;19.00;99.90;;;;;;6215279;23;20070;-86
2022/07/13 02:07:21;;;;;;;1.63;0.80;;;19.00;99.90;;;;;;6213628;23;20146;-86
2022/07/13 02:09:48;;;;;;;0.98;0.80;;;19.00;99.90;;;;;;6214912;23;20032;-86
2022/07/13 02:12:13;;;;;;;0.77;0.70;;;19.00;99.90;;;;;;6213211;23;20455;-85
2022/07/13 02:14:39;;;;;;;1.17;0.60;;;19.00;99.90;;;;;;6213028;23;20035;-84
2022/07/13 02:17:05;;;;;;;1.27;0.90;;;19.00;99.90;;;;;;6214748;23;20248;-86
2022/07/13 02:19:31;;;;;;;0.93;0.60;;;19.00;99.90;;;;;;6214897;23;20017;-87
2022/07/13 02:21:56;;;;;;;0.80;0.70;;;19.10;99.90;;;;;;6215216;23;20017;-86
2022/07/13 02:24:22;;;;;;;1.30;0.88;;;19.10;99.90;;;;;;6215237;23;20042;-86
2022/07/13 02:26:49;;;;;;;1.52;1.00;;;19.10;99.90;;;;;;6213508;23;20020;-86
2022/07/13 02:29:14;;;;;;;2.35;1.40;;;19.10;99.90;;;;;;6213249;23;20012;-86
2022/07/13 02:31:40;;;;;;;2.35;1.70;;;19.10;99.90;;;;;;6214607;23;20346;-86
2022/07/13 02:34:06;;;;;;;2.45;1.75;;;19.10;99.90;;;;;;6215030;23;20012;-85
2022/07/13 02:36:31;;;;;;;2.40;1.65;;;19.20;99.90;;;;;;6214402;23;20055;-85
2022/07/13 02:38:57;;;;;;;4.18;1.77;;;19.30;99.90;;;;;;6214870;23;20024;-85
2022/07/13 02:41:23;;;;;;;2.53;1.85;;;19.40;99.90;;;;;;6213187;23;20019;-85
2022/07/13 02:43:49;;;;;;;2.58;1.92;;;19.50;99.90;;;;;;6213481;23;20013;-86
2022/07/13 02:46:14;;;;;;;1.60;1.30;;;19.60;99.90;;;;;;6188346;23;20016;-86
2022/07/13 02:48:40;;;;;;;2.75;1.60;;;19.60;99.90;;;;;;6214878;23;20008;-86
2022/07/13 02:51:06;;;;;;;3.22;2.13;;;19.70;99.90;;;;;;6212843;23;20082;-86
2022/07/13 02:53:31;;;;;;;2.08;1.70;;;19.70;99.90;;;;;;6213043;23;20027;-86
2022/07/13 02:55:58;;;;;;;2.42;1.80;;;19.80;99.90;;;;;;6215201;23;20490;-85
2022/07/13 02:58:24;;;;;;;2.28;1.80;;;19.80;99.90;;;;;;6213029;23;20023;-85
2022/07/13 03:00:49;;;;;;;2.42;1.92;;;19.80;99.90;;;;;;6187684;23;20021;-85
2022/07/13 03:03:15;;;;;;;2.13;1.70;;;19.90;99.90;;;;;;6212540;23;20044;-86
2022/07/13 03:05:41;;;;;;;1.92;1.40;;;19.90;99.90;;;;;;6214888;23;20020;-85
2022/07/13 03:08:06;;;;;;;5.70;2.65;;;19.90;99.90;;;;;;6212916;23;20020;-86
2022/07/13 03:10:32;;;;;;;2.88;2.00;;;20.00;99.90;;;;;;6214030;23;20079;-85
2022/07/13 03:12:58;;;;;;;4.28;2.55;;;20.00;99.90;;;;;;6214742;23;20016;-86
2022/07/13 03:15:24;;;;;;;2.65;2.10;;;20.10;99.90;;;;;;6216929;23;20024;-85
2022/07/13 03:17:50;;;;;;;3.45;2.20;;;20.10;99.90;;;;;;6214535;23;20099;-85
2022/07/13 03:20:16;;;;;;;2.55;2.10;;;20.10;99.90;;;;;;6214597;23;20106;-85
2022/07/13 03:22:42;;;;;;;2.28;1.70;;;20.10;99.90;;;;;;6214394;23;20028;-85
2022/07/13 03:25:09;;;;;;;1.70;1.38;;;20.10;99.90;;;;;;6214581;23;20048;-85
2022/07/13 03:27:34;;;;;;;1.90;1.40;;;20.10;99.90;;;;;;6216518;23;20435;-87
2022/07/13 03:30:00;;;;;;;2.25;1.60;;;20.30;99.90;;;;;;6214870;23;20099;-85
2022/07/13 03:32:26;;;;;;;2.20;1.30;;;20.10;99.90;;;;;;6214625;23;20099;-85
2022/07/13 03:34:52;;;;;;;1.80;1.50;;;20.10;99.90;;;;;;6216290;23;20038;-85
2022/07/13 03:37:18;;;;;;;1.70;1.40;;;20.10;99.90;;;;;;6216083;23;20048;-85
2022/07/13 03:39:43;;;;;;;1.67;1.40;;;20.10;99.90;;;;;;6214856;23;20012;-86
2022/07/13 03:42:09;;;;;;;2.90;1.85;;;20.10;99.90;;;;;;6214670;23;20016;-86
2022/07/13 03:44:35;;;;;;;2.85;1.73;;;20.10;99.90;;;;;;6216191;23;20017;-86
2022/07/13 03:47:00;;;;;;;2.80;1.50;;;20.10;99.90;;;;;;6214767;23;20104;-86
2022/07/13 03:49:26;;;;;;;1.65;1.35;;;20.10;99.90;;;;;;6215049;23;20067;-87
2022/07/13 03:51:52;;;;;;;3.08;1.80;;;20.10;99.90;;;;;;6214454;23;20110;-84
2022/07/13 03:54:18;;;;;;;2.03;1.38;;;20.10;99.90;;;;;;6214176;23;20351;-87
2022/07/13 03:56:43;;;;;;;2.33;1.80;;;20.10;99.90;;;;;;6214488;23;20078;-86
2022/07/13 03:59:09;;;;;;;3.47;1.67;;;20.10;99.90;;;;;;6214309;23;20056;-85
2022/07/13 04:01:35;;;;;;;2.08;1.50;;;20.10;99.90;;;;;;6215763;23;20070;-84
2022/07/13 04:04:03;;;;;;;2.42;1.38;;;20.10;99.90;;;;;;6215699;23;20013;-86
2022/07/13 04:06:29;;;;;;;2.65;1.63;;;20.10;99.90;;;;;;6214163;23;20329;-86
2022/07/13 04:08:55;;;;;;;2.03;1.20;;;20.20;99.90;;;;;;6214577;23;20021;-86
2022/07/13 04:11:21;;;;;;;2.67;1.48;;;20.10;99.90;;;;;;6216285;23;20226;-85
2022/07/13 04:13:46;;;;;;;2.00;1.20;;;20.10;99.90;;;;;;6214619;23;20351;-85
2022/07/13 04:16:12;;;;;;;2.20;1.40;;;20.20;99.90;;;;;;6215916;23;20013;-86
2022/07/13 04:18:38;;;;;;;2.78;1.95;;;20.20;99.90;;;;;;6214191;23;20315;-86
2022/07/13 04:21:04;;;;;;;2.72;1.95;;;20.20;99.90;;;;;;6214554;23;20044;-86
2022/07/13 04:23:30;;;;;;;3.13;1.67;;;20.20;99.90;;;;;;6214478;23;20016;-87
2022/07/13 04:25:59;;;;;;;3.22;2.25;;;20.30;99.90;;;;;;6214263;23;20021;-84
2022/07/13 04:28:25;;;;;;;3.63;2.00;;;20.30;99.90;;;;;;6214219;23;20030;-85
2022/07/13 04:30:51;;;;;;;2.42;1.63;;;20.30;99.90;;;;;;6214207;23;20028;-85
2022/07/13 04:33:16;;;;;;;2.53;1.67;;;20.30;99.90;;;;;;6214464;23;20109;-86
2022/07/13 04:35:42;;;;;;;2.92;2.03;;;20.30;99.90;;;;;;6216018;23;20031;-85
2022/07/13 04:38:08;;;;;;;2.30;1.90;;;20.40;99.90;;;;;;6213686;23;20017;-86
2022/07/13 04:40:34;;;;;;;1.83;1.48;;;20.40;99.90;;;;;;6214531;23;20023;-85
2022/07/13 04:42:59;;;;;;;2.78;1.75;;;20.40;99.90;;;;;;6213894;23;20316;-85
2022/07/13 04:45:25;;;;;;;3.40;2.20;;;20.40;99.90;;;;;;6214664;23;20320;-85
2022/07/13 04:47:51;;;;;;;3.10;1.45;;;20.40;99.90;;;;;;6213718;23;20091;-87
2022/07/13 04:50:16;;;;;;;2.63;1.75;;;20.40;99.90;;;;;;6215480;23;20013;-86
2022/07/13 04:52:42;;;;;;;2.45;1.73;;;20.40;99.90;;;;;;6215608;23;20016;-87
2022/07/13 04:55:09;;;;;;;2.05;1.35;;;20.40;99.90;;;;;;6189246;23;20100;-85
2022/07/13 04:57:35;;;;;;;2.58;1.80;;;20.40;99.90;;;;;;6214272;23;20423;-86
2022/07/13 05:00:03;;;;;;;3.13;1.90;;;20.40;99.90;;;;;;6215209;23;20020;-86
2022/07/13 05:02:29;;;;;;;1.67;1.25;;;20.40;99.90;;;;;;6213495;23;20028;-85
2022/07/13 05:04:55;;;;;;;2.42;1.30;;;20.40;99.90;;;;;;6215857;23;20362;-86
2022/07/13 05:07:21;;;;;;;2.08;1.65;;;20.40;99.90;;;;;;6213808;23;20112;-85
2022/07/13 05:09:46;;;;;;;1.70;1.20;;;20.40;99.90;;;;;;6188663;23;20447;-86
2022/07/13 05:12:12;;;;;;;1.60;1.10;;;20.40;99.90;;;;;;6213458;23;20062;-87
2022/07/13 05:14:38;;;;;;;2.22;1.30;;;20.30;99.90;;;;;;6215452;23;20296;-85
2022/07/13 05:17:03;;;;;;;1.88;1.27;;;20.30;99.90;;;;;;6213946;23;20021;-86
2022/07/13 05:19:29;;;;;;;2.10;1.50;;;20.30;99.90;;;;;;6214089;23;20024;-86
2022/07/13 05:21:55;;;;;;;2.45;1.55;;;20.20;99.90;;;;;;6213913;23;20016;-86
2022/07/13 05:24:20;;;;;;;2.83;1.45;;;20.30;99.90;;;;;;6213596;23;20335;-86
2022/07/13 05:26:46;;;;;;;2.30;1.60;;;20.30;99.90;;;;;;6213337;23;20016;-85
2022/07/13 05:29:12;;;;;;;2.08;1.30;;;20.30;99.90;;;;;;6213552;23;20020;-87
2022/07/13 05:31:38;;;;;;;1.73;1.15;;;20.20;99.90;;;;;;6213490;23;20027;-86
2022/07/13 05:34:09;;;;;;;2.00;1.40;;;20.30;99.90;;;;;;6215344;23;20070;-86
2022/07/13 05:36:36;;;;;;;2.42;1.48;;;20.20;99.90;;;;;;6213665;23;20078;-87
2022/07/13 05:39:02;;;;;;;2.25;1.45;;;20.20;99.90;;;;;;6213732;23;20028;-87
2022/07/13 05:41:28;;;;;;;2.97;1.77;;;20.20;99.90;;;;;;6213921;23;20020;-86
2022/07/13 05:43:54;;;;;;;2.13;1.35;;;20.20;99.90;;;;;;6213416;23;20012;-86
2022/07/13 05:46:20;;;;;;;1.90;1.42;;;20.20;99.90;;;;;;6214846;23;20091;-85
2022/07/13 05:48:46;;;;;;;1.80;1.25;;;20.20;99.90;;;;;;6188404;23;20514;-86
2022/07/13 05:51:24;;;;;;;2.42;1.85;;;20.20;99.90;;;;;;6215580;23;20009;-88
2022/07/13 05:53:59;;;;;;;2.75;1.70;;;20.20;99.90;;;;;;6209464;22;20024;-88
2022/07/13 05:56:40;;;;;;;3.63;2.03;;;20.20;99.90;;;;;;6214004;23;20027;-87
2022/07/13 06:02:55;;;;;;;3.00;1.92;;;20.60;99.90;;;;;;6182275;23;20020;-88
2022/07/13 06:05:29;;;;;;;2.33;1.60;;;20.20;99.90;;;;;;6157494;23;20049;-85
2022/07/13 06:08:03;;;;;;;1.88;1.40;;;20.30;99.90;;;;;;6182020;23;20455;-87
2022/07/13 06:10:33;;;;;;;2.70;1.90;;;20.20;99.90;;;;;;6156505;23;20027;-85
2022/07/13 06:17:15;;;;;;;4.38;2.85;;;20.40;99.90;;;;;;6182425;23;20080;-88
2022/07/13 06:19:41;;;;;;;4.97;2.47;;;20.50;99.90;;;;;;6157029;23;20062;-87
2022/07/13 06:22:18;;;;;;;2.03;1.50;;;20.50;99.90;;;;;;6156930;23;20378;-86
2022/07/13 06:24:44;;;;;;;2.05;1.42;;;20.50;99.90;;;;;;6156865;23;20834;-86
2022/07/13 06:27:12;;;;;;;3.08;1.70;;;20.60;99.90;;;;;;6156920;23;20037;-86
2022/07/13 06:29:43;;;;;;;5.75;2.55;;;20.70;99.90;;;;;;6175992;23;20016;-88
2022/07/13 06:32:09;;;;;;;2.22;1.60;;;20.80;99.90;;;;;;6239398;23;20032;-85
2022/07/13 06:34:50;;;;;;;4.53;2.17;;;20.80;99.90;;;;;;6218138;23;20446;-86
2022/07/13 06:37:19;;;;;;;2.60;1.60;;;20.80;99.90;;;;;;6218249;23;20622;-85
2022/07/13 06:39:52;;;;;;;2.72;1.80;;;20.90;99.90;;;;;;6164189;23;20036;-86
2022/07/13 06:42:18;;;;;;;2.45;1.40;;;21.00;99.90;;;;;;6188029;23;20083;-86
2022/07/13 06:44:47;;;;;;;2.88;1.42;;;21.00;99.90;;;;;;6216126;23;20017;-87
2022/07/13 06:47:20;;;;;;;3.70;1.70;;;21.10;99.90;;;;;;6190157;23;20013;-88
2022/07/13 06:49:51;;;;;;;5.28;3.30;;;21.30;99.90;;;;;;6190183;23;20021;-88
2022/07/13 06:52:22;;;;;;;5.32;2.40;;;21.40;99.90;;;;;;6188935;23;20450;-86
2022/07/13 06:54:55;;;;;;;5.03;3.03;;;21.70;99.90;;;;;;6216114;23;20502;-86
2022/07/13 06:57:30;;;;;;;3.10;1.63;;;21.80;99.90;;;;;;6164745;23;20032;-86
2022/07/13 07:00:16;;;;;;;6.47;2.80;;;21.90;99.90;;;;;;6188306;23;20030;-86
2022/07/13 07:03:06;;;;;;;;;;;;;;;;;;;;;
2022/07/13 07:05:47;;;;;;;3.33;1.48;;;22.20;99.90;;;;;;6114927;23;20079;-87
2022/07/13 07:08:23;;;;;;;;;;;;;;;;;;;;;
2022/07/13 07:11:50;;;;;;;5.55;2.17;;;22.40;99.90;;;;;;6189802;23;20390;-86
2022/07/13 07:22:07;;;;;;;3.78;2.03;;;23.00;99.90;;;;;;6188987;23;20023;-87
2022/07/13 07:24:51;;;;;;;2.35;1.42;;;23.20;99.90;;;;;;6215277;23;20056;-86
2022/07/13 12:21:15;;;;;;;1.00;0.45;;;27.10;99.20;;;;;;6191268;23;20036;-87
2022/07/13 12:23:52;;;;;;;3.28;0.80;;;26.80;99.20;;;;;;6100332;23;20057;-85
2022/07/13 12:27:18;;;;;;;3.10;0.73;;;26.90;99.30;;;;;;6094220;23;20388;-85
2022/07/13 12:30:11;;;;;;;1.73;1.00;;;26.90;99.20;;;;;;6035941;23;20032;-86
2022/07/13 12:36:54;;;;;;;4.05;0.80;;;26.90;99.50;;;;;;6212521;23;20029;-87
2022/07/13 12:40:08;;;;;;;4.78;0.95;;;26.80;99.10;;;;;;6187732;23;20094;-85
2022/07/13 12:42:52;;;;;;;3.78;0.50;;;26.50;99.10;;;;;;6046106;23;20026;-88
2022/07/13 12:49:49;;;;;;;;;;;;;;;;;;;;;
2022/07/13 13:02:08;;;;;;;2.80;0.73;;;27.10;98.60;;;;;;6155937;23;20021;-85
2022/07/13 13:04:47;;;;;;;2.03;0.75;;;27.00;97.80;;;;;;6129442;23;20024;-85
2022/07/13 13:07:42;;;;;;;1.73;0.60;;;26.80;97.90;;;;;;6104147;23;20013;-86
2022/07/13 13:10:11;;;;;;;5.53;0.90;;;26.90;99.90;;;;;;6128924;23;20017;-85
2022/07/13 13:13:16;;;;;;;;;;;;;;;;;;;;;
2022/07/13 13:16:39;;;;;;;2.72;0.63;;;26.90;98.20;;;;;;5936830;23;20094;-86
2022/07/13 13:19:42;;;;;;;;;;;;;;;;;;;;;
2022/07/13 13:35:49;;;;;;;2.30;0.43;;;26.40;99.60;;;;;;6122412;23;20018;-84
2022/07/13 13:38:36;;;;;;;3.27;0.50;;;26.50;98.10;;;;;;6123373;23;20097;-84
2022/07/13 13:41:15;;;;;;;1.85;0.45;;;26.60;97.40;;;;;;6133089;23;20722;-85
2022/07/13 13:50:36;;;;;;;5.47;0.60;;;26.50;97.00;;;;;;6098055;23;20033;-85
2022/07/13 13:53:25;;;;;;;3.72;0.60;;;26.00;97.40;;;;;;6098503;23;20081;-85
2022/07/13 13:56:17;;;;;;;3.13;0.60;;;26.10;97.20;;;;;;6098077;23;20022;-86
2022/07/13 14:06:31;;;;;;;2.50;0.30;;;26.30;96.90;;;;;;6122668;23;20029;-85
2022/07/13 14:09:11;;;;;;;4.57;1.00;;;26.60;96.60;;;;;;6063897;23;20015;-86
2022/07/13 14:12:23;;;;;;;7.00;0.70;;;26.50;97.20;;;;;;6040362;23;20033;-86
2022/07/13 14:15:17;;;;;;;;;;;;;;;;;;;;;
2022/07/13 14:18:19;;;;;;;;;;;26.50;95.10;;;;;;6003717;23;20104;-85
2022/07/13 14:25:33;;;;;;;;;;;;;;;;;;;;;
2022/07/13 14:36:20;;;;;;;4.80;0.75;;;26.90;95.50;;;;;;6102830;23;20396;-84
2022/07/13 14:47:34;;;;;;;;;;;;;;;;;;;;;
2022/07/13 14:50:41;;;;;;;5.15;0.70;;;26.30;95.50;;;;;;6158219;23;20703;-85
2022/07/13 14:53:18;;;;;;;7.85;1.10;;;26.10;96.30;;;;;;6035543;23;20052;-87
2022/07/13 14:56:18;;;;;;;6.80;0.90;;;26.10;96.10;;;;;;6060400;23;20079;-87
2022/07/13 15:03:36;;;;;;;6.53;1.00;;;26.10;96.50;;;;;;6036043;23;20060;-87
2022/07/13 15:07:06;;;;;;;6.82;0.88;;;26.40;95.00;;;;;;6012786;23;20095;-87
2022/07/13 15:10:44;;;;;;;5.10;0.90;;;26.20;95.20;;;;;;6014823;23;20023;-86
2022/07/13 15:21:06;;;;;;;;;;;;;;;;;;;;;
2022/07/13 15:23:49;;;;;;;4.83;0.70;;;25.90;94.40;;;;;;5796042;24;20489;-87
2022/07/13 15:26:25;;;;;;;6.60;0.90;;;26.00;94.90;;;;;;5821506;24;20060;-87
2022/07/13 15:32:52;;;;;;;4.65;0.80;;;26.00;94.90;;;;;;5925519;24;20020;-86
2022/07/13 15:35:20;;;;;;;5.28;0.80;;;25.80;95.20;;;;;;5901052;24;20013;-87
2022/07/13 15:37:56;;;;;;;8.32;0.95;;;25.50;96.60;;;;;;5902261;24;20017;-86
2022/07/13 15:44:04;;;;;;;7.55;1.10;;;25.20;95.70;;;;;;5925739;24;20029;-85
2022/07/13 15:46:47;;;;;;;5.65;1.00;;;25.40;96.20;;;;;;5948152;24;20021;-86
2022/07/13 15:49:24;;;;;;;8.80;1.13;;;25.50;95.70;;;;;;5941715;23;20112;-86
2022/07/13 15:52:14;;;;;;;8.65;1.40;;;25.30;95.40;;;;;;6002567;23;20031;-87
2022/07/13 20:34:05;;;;;;;2.60;0.50;;;17.20;99.90;;;;;;6154441;23;20021;-87
2022/07/13 20:36:37;;;;;;;3.17;0.50;;;17.10;99.90;;;;;;6103134;23;20021;-86
2022/07/13 20:39:08;;;;;;;2.95;0.30;;;17.10;99.90;;;;;;6104260;23;20049;-86
2022/07/13 20:41:45;;;;;;;2.88;0.38;;;17.00;99.90;;;;;;6100178;23;20061;-87
2022/07/13 20:44:11;;;;;;;3.30;0.40;;;16.90;99.90;;;;;;6130043;23;20068;-84
2022/07/13 20:47:38;;;;;;;4.03;0.50;;;16.90;99.90;;;;;;6127921;23;20014;-87
2022/07/13 20:50:33;;;;;;;1.70;0.38;;;16.80;99.90;;;;;;5928644;24;20029;-86
2022/07/13 20:53:07;;;;;;;3.55;0.40;;;16.70;99.90;;;;;;5926700;24;20481;-86
2022/07/13 20:55:46;;;;;;;3.83;0.47;;;16.70;99.90;;;;;;5926694;24;20063;-87
2022/07/13 21:02:00;;;;;;;3.97;0.57;;;16.60;99.90;;;;;;5938248;23;20109;-86
2022/07/13 21:04:40;;;;;;;4.07;0.50;;;16.60;99.90;;;;;;6160896;23;20451;-86
2022/07/13 21:07:08;;;;;;;1.40;0.30;;;16.50;99.90;;;;;;6183993;23;20459;-84
2022/07/13 21:09:42;;;;;;;3.53;0.50;;;16.50;99.90;;;;;;6185385;23;20021;-85
2022/07/13 21:12:10;;;;;;;1.98;0.40;;;16.40;99.90;;;;;;6134345;23;20083;-86
2022/07/13 21:14:41;;;;;;;2.97;0.60;;;16.40;99.90;;;;;;6158713;23;20466;-85
2022/07/13 21:20:48;;;;;;;2.78;0.50;;;16.40;99.90;;;;;;6185318;23;20015;-84
2022/07/13 21:23:14;;;;;;;1.73;0.30;;;16.40;99.90;;;;;;6184997;23;20087;-83
2022/07/13 21:28:24;;;;;;;3.40;0.38;;;16.30;99.90;;;;;;6158545;23;20079;-85
2022/07/13 21:30:50;;;;;;;0.85;0.63;;;16.20;99.90;;;;;;6185492;23;20039;-84
2022/07/13 21:33:19;;;;;;;6.28;0.60;;;16.10;99.90;;;;;;6183742;23;20016;-84
2022/07/13 21:35:45;;;;;;;1.75;0.50;;;16.10;99.90;;;;;;6158857;23;20013;-85
2022/07/13 21:38:10;;;;;;;2.38;0.30;;;16.10;99.90;;;;;;6158393;23;20092;-83
2022/07/13 21:40:36;;;;;;;2.15;0.40;;;16.00;99.90;;;;;;6158649;23;20013;-84
2022/07/13 21:43:03;;;;;;;3.17;0.43;;;15.90;99.90;;;;;;6158641;23;20024;-84
2022/07/13 21:45:29;;;;;;;5.72;0.50;;;16.00;99.90;;;;;;6158643;23;20023;-85
2022/07/13 21:47:56;;;;;;;2.28;0.40;;;15.90;99.90;;;;;;6184940;23;20509;-84
2022/07/13 21:50:22;;;;;;;1.52;0.30;;;15.80;99.90;;;;;;6158532;23;20025;-84
2022/07/13 21:52:48;;;;;;;1.77;0.40;;;15.80;99.90;;;;;;6185333;23;20387;-83
2022/07/13 21:55:14;;;;;;;2.35;0.32;;;15.70;99.90;;;;;;6158985;23;20017;-84
2022/07/13 21:57:42;;;;;;;1.98;0.40;;;15.70;99.90;;;;;;6184789;23;20036;-85
2022/07/13 22:00:14;;;;;;;3.67;0.50;;;15.70;99.90;;;;;;6133861;23;20399;-86
2022/07/13 22:02:40;;;;;;;1.85;0.30;;;15.70;99.90;;;;;;6157371;23;20021;-85
2022/07/13 22:05:25;;;;;;;2.50;0.40;;;15.60;99.90;;;;;;6158503;23;20041;-83
2022/07/13 22:07:50;;;;;;;2.75;0.40;;;15.60;99.90;;;;;;6158362;23;20013;-84
2022/07/13 22:10:54;;;;;;;2.00;0.40;;;15.60;99.90;;;;;;6185192;23;20017;-84
2022/07/13 22:13:57;;;;;;;2.00;0.30;;;15.60;99.90;;;;;;6156074;23;20017;-84
2022/07/13 22:17:00;;;;;;;1.10;0.30;;;15.60;99.90;;;;;;6157989;23;20032;-85
2022/07/13 22:20:07;;;;;;;4.28;0.73;;;15.60;99.90;;;;;;6158312;23;20028;-85
2022/07/13 22:23:10;;;;;;;1.85;0.52;;;15.50;99.90;;;;;;6158179;23;20021;-85
2022/07/13 22:26:13;;;;;;;1.38;0.40;;;15.50;99.90;;;;;;6158552;23;20072;-85
2022/07/13 22:29:17;;;;;;;1.60;0.40;;;15.50;99.90;;;;;;6157612;23;20020;-85
2022/07/13 22:32:20;;;;;;;2.70;0.40;;;15.40;99.90;;;;;;6158294;23;20036;-85
2022/07/13 22:35:24;;;;;;;4.05;0.43;;;15.50;99.90;;;;;;6184473;23;20025;-85
2022/07/13 22:38:27;;;;;;;3.47;0.82;;;15.40;99.90;;;;;;6158452;23;20060;-85
2022/07/13 22:41:30;;;;;;;4.38;0.40;;;15.40;99.90;;;;;;6158586;23;20031;-85
2022/07/13 22:44:33;;;;;;;1.60;0.40;;;15.40;99.90;;;;;;6157757;23;20025;-84
2022/07/13 22:47:37;;;;;;;5.28;0.45;;;15.40;99.90;;;;;;6157916;23;20056;-84
2022/07/13 22:50:40;;;;;;;4.78;0.45;;;15.30;99.90;;;;;;6157597;23;20021;-85
2022/07/13 22:53:44;;;;;;;3.17;0.50;;;15.30;99.90;;;;;;6184991;23;20023;-85
2022/07/13 22:56:47;;;;;;;3.20;0.55;;;15.30;99.90;;;;;;6158330;23;20017;-85
2022/07/13 22:59:50;;;;;;;2.90;0.50;;;15.30;99.90;;;;;;6157425;23;20025;-85
2022/07/13 23:02:54;;;;;;;3.85;0.70;;;15.30;99.90;;;;;;6182435;23;20394;-84
2022/07/13 23:05:57;;;;;;;2.30;0.50;;;15.20;99.90;;;;;;6153186;23;20471;-85
2022/07/13 23:09:01;;;;;;;2.92;0.40;;;15.20;99.90;;;;;;6154832;23;20420;-85
2022/07/13 23:12:04;;;;;;;3.90;0.70;;;15.10;99.90;;;;;;6155174;23;20018;-85
2022/07/13 23:15:07;;;;;;;1.33;0.35;;;15.30;99.90;;;;;;6155136;23;20022;-85
2022/07/13 23:18:10;;;;;;;2.58;0.40;;;15.10;99.90;;;;;;6128965;23;20026;-84
2022/07/13 23:21:13;;;;;;;2.55;0.38;;;15.00;99.90;;;;;;6104221;23;20025;-85
2022/07/13 23:24:16;;;;;;;2.95;0.50;;;15.00;99.90;;;;;;6154966;23;20021;-84
2022/07/13 23:27:19;;;;;;;2.15;0.40;;;15.00;99.90;;;;;;6129147;23;20407;-85
2022/07/13 23:29:45;;;;;;;3.08;0.50;;;15.00;99.90;;;;;;6156737;23;20025;-84
2022/07/13 23:32:29;;;;;;;4.35;0.70;;;15.00;99.90;;;;;;6130136;23;20021;-85
2022/07/13 23:34:55;;;;;;;1.73;0.30;;;14.90;99.90;;;;;;6130777;23;20032;-84
2022/07/13 23:37:22;;;;;;;2.67;0.45;;;15.20;99.90;;;;;;6130717;23;20021;-84
2022/07/13 23:39:48;;;;;;;2.53;0.40;;;14.90;99.90;;;;;;6130169;23;20018;-84
2022/07/13 23:42:14;;;;;;;1.30;0.40;;;14.90;99.90;;;;;;6130041;23;20018;-84
2022/07/13 23:44:40;;;;;;;1.95;0.50;;;14.70;99.90;;;;;;6156291;23;20025;-84
2022/07/13 23:47:06;;;;;;;0.77;0.30;;;14.80;99.90;;;;;;6130075;23;20384;-84
2022/07/13 23:49:32;;;;;;;3.47;0.40;;;14.80;99.90;;;;;;6129871;23;20103;-84
2022/07/13 23:51:58;;;;;;;2.25;0.40;;;14.80;99.90;;;;;;6130152;23;20018;-85
2022/07/13 23:54:24;;;;;;;3.15;0.50;;;14.70;99.90;;;;;;6156588;23;20028;-85
2022/07/13 23:56:51;;;;;;;3.83;0.80;;;14.70;99.90;;;;;;6156620;23;20022;-85
2022/07/13 23:59:17;;;;;;;2.90;0.30;;;14.70;99.90;;;;;;6156268;23;20021;-85
